Perrysville, Ohio
Current Conditions -  °F | °C
As of 3:00 AM on Friday 28 Nov 2014 (Local Time) from KMFD Reporting Station
Broken Clouds Broken Clouds  
Wind Chill: 16°   Ceiling: 5000
Heat Index: 22°   Visibility: 10mi
Dew Point: 19°   Wind: 5mph
Humidity: 89%   Direction: 280°W
Pressure: 30.29"   Gusts: NA
Location:  40.66°N, 82.31°W
Report Text: KMFD 280800Z AUTO 28004KT 10SM SCT013 BKN050 M06/M07 A3029 RMK AO2 T10561072
Loading
Personal Weather Stations






























Interactive Weather Map New forecast layout! Learn more

10-Day Weather Forecast

Advertisements
Track Severe Weather on mobile